Estación de Vida Nueva

Ultimos registro cada 15 minutos 30
Estación Fecha / Hora Temperatura Humedad Lluvia Velocidad Dirección Radiación Presion
30 Vida Nueva 02-05-2026 12:30 14,7 46,1 0 0 170 544,4 990,1
29 Vida Nueva 02-05-2026 12:15 14,8 49 0 0 142 581,9 990,4
28 Vida Nueva 02-05-2026 12:00 14 45,4 0 0 110 559,4 990,7
27 Vida Nueva 02-05-2026 11:45 13,4 45,6 0 0 104 554,4 991,1
26 Vida Nueva 02-05-2026 11:30 12,8 48 0 0 138 540,6 990,8
25 Vida Nueva 02-05-2026 11:15 12,4 49,3 0 0 129 475,6 991,3
24 Vida Nueva 02-05-2026 11:00 12,1 50,1 0 0 138 486,9 991,5
23 Vida Nueva 02-05-2026 10:45 11,2 50,4 0 0 132 468,1 991,6
22 Vida Nueva 02-05-2026 10:30 11 52,2 0 0 136 441,9 991,9
21 Vida Nueva 02-05-2026 10:15 10,8 52,7 0 0 114 410,6 992,2
20 Vida Nueva 02-05-2026 10:00 10 53,3 0 0 136 359,4 992,2
19 Vida Nueva 02-05-2026 09:45 9,6 55,4 0 0 117 336,9 992,5
18 Vida Nueva 02-05-2026 09:30 9,1 56,8 0 0 125 299,4 992,8
17 Vida Nueva 02-05-2026 09:15 8,3 59 0 0 135 189,4 992,8
16 Vida Nueva 02-05-2026 09:00 8,1 60 0 0 161 171,9 992,8
15 Vida Nueva 02-05-2026 08:45 7,6 61,4 0 0 121 148,1 993
14 Vida Nueva 02-05-2026 08:30 7,3 62 0 0 149 161,9 993,1
13 Vida Nueva 02-05-2026 08:15 5,2 60,1 0 0 160 118,1 993
12 Vida Nueva 02-05-2026 08:00 5,4 60,2 0 0 138 25,6 992,9
11 Vida Nueva 02-05-2026 07:45 4,4 56,5 0 0 122 6,9 992,9
10 Vida Nueva 02-05-2026 07:30 4,7 57,9 0 0 121 3,1 993,2
9 Vida Nueva 02-05-2026 07:15 5,3 53,2 0 0 157 0,6 993,4
8 Vida Nueva 02-05-2026 07:00 5,1 36,9 0 0 119 0,6 993,6
7 Vida Nueva 02-05-2026 06:45 1,6 15,3 0 0 139 0,6 993,7
6 Vida Nueva 02-05-2026 06:30 1,9 20,9 0 0 139 0,6 993,9
5 Vida Nueva 02-05-2026 06:15 2,3 26,1 0 0 139 0,6 994,3
4 Vida Nueva 02-05-2026 06:00 3,8 25,6 0 0 139 0,6 994,6
3 Vida Nueva 02-05-2026 05:45 4,7 28,5 0 0 140 0,6 994,7
2 Vida Nueva 02-05-2026 05:30 5,2 20,8 0 0 160 0,6 994,7
1 Vida Nueva 02-05-2026 05:15 4,7 11,7 0 0 161 0,6 994,5